Time;durP1;ratioP1;P1;durP2;ratioP2;P2;SDS_P1;SDS_P2;PMS_P1;PMS_P2;Temp;Humidity;BMP_temperature;BMP_pressure;BME280_temperature;BME280_humidity;BME280_pressure;Samples;Min_cycle;Max_cycle;Signal;HPM_P1;HPM_P2
2021/01/28 00:01:04;;;;;;;31.00;16.67;;;;;;;2.93;61.11;101212.66;5032036;28;20441;-69
2021/01/28 00:03:31;;;;;;;24.70;16.42;;;;;;;2.91;61.09;101214.41;5032028;28;20048;-69
2021/01/28 00:05:57;;;;;;;26.45;17.38;;;;;;;2.90;61.23;101219.63;5032412;28;20497;-72
2021/01/28 00:08:23;;;;;;;26.40;17.10;;;;;;;2.90;61.23;101211.84;5031929;28;20053;-70
2021/01/28 00:10:49;;;;;;;27.42;15.82;;;;;;;2.88;61.31;101214.47;5031943;28;20054;-70
2021/01/28 00:13:15;;;;;;;25.55;16.27;;;;;;;2.87;61.05;101225.72;5031633;28;20490;-70
2021/01/28 00:15:42;;;;;;;26.88;15.85;;;;;;;2.88;61.04;101242.09;5032595;28;20467;-70
2021/01/28 00:18:11;;;;;;;30.15;16.35;;;;;;;2.86;61.00;101234.34;5034411;28;20054;-70
2021/01/28 00:20:43;;;;;;;29.90;16.15;;;;;;;2.84;61.09;101243.88;5034476;28;20091;-71
2021/01/28 00:23:10;;;;;;;25.75;15.77;;;;;;;2.84;60.84;101235.25;5035056;28;20061;-70
2021/01/28 00:25:37;;;;;;;24.35;15.10;;;;;;;2.84;60.88;101233.50;5035054;28;20053;-71
2021/01/28 00:28:05;;;;;;;22.02;14.43;;;;;;;2.85;60.97;101239.56;5033821;28;20132;-70
2021/01/28 00:30:34;;;;;;;25.30;15.30;;;;;;;2.84;61.07;101224.91;5015238;28;20053;-70
2021/01/28 00:33:01;;;;;;;25.20;15.77;;;;;;;2.86;61.04;101217.97;5015370;28;20060;-71
2021/01/28 00:35:32;;;;;;;27.40;15.23;;;;;;;2.87;60.93;101206.69;5015042;28;20057;-69
2021/01/28 00:37:59;;;;;;;30.08;15.30;;;;;;;2.88;60.81;101211.00;5017848;28;20061;-71
2021/01/28 00:40:28;;;;;;;28.58;15.65;;;;;;;2.88;60.65;101213.59;5034857;28;20067;-71
2021/01/28 00:42:55;;;;;;;23.48;14.38;;;;;;;2.89;60.52;101215.31;5034713;28;20052;-71
2021/01/28 00:45:25;;;;;;;30.42;14.25;;;;;;;2.88;60.37;101208.41;5034634;28;20136;-71
2021/01/28 00:47:52;;;;;;;27.27;14.43;;;;;;;2.88;60.14;101198.03;5034622;28;20482;-70
2021/01/28 00:50:21;;;;;;;26.45;13.93;;;;;;;2.88;60.02;101208.41;5034740;28;20053;-71
2021/01/28 00:52:47;;;;;;;25.63;13.80;;;;;;;2.87;59.80;101217.94;5033702;28;20557;-71
2021/01/28 00:55:15;;;;;;;25.98;14.18;;;;;;;2.88;59.63;101223.97;5034841;28;20415;-71
2021/01/28 00:57:42;;;;;;;33.65;15.32;;;;;;;2.86;59.61;101233.50;5034518;28;20498;-71
2021/01/28 01:00:32;;;;;;;30.33;15.77;;;;;;;2.85;59.65;101230.03;5034404;28;20133;-71
2021/01/28 01:02:59;;;;;;;30.70;16.75;;;;;;;2.85;59.60;101231.78;5034272;28;20433;-71
2021/01/28 01:05:28;;;;;;;31.95;17.90;;;;;;;2.84;59.61;101227.50;5034349;28;20049;-71
2021/01/28 01:07:55;;;;;;;26.77;15.35;;;;;;;2.83;59.55;101228.38;5034408;28;20045;-70
2021/01/28 01:10:27;;;;;;;28.40;15.68;;;;;;;2.81;59.68;101220.63;5034304;28;20460;-70
2021/01/28 01:12:54;;;;;;;27.10;14.40;;;;;;;2.79;59.60;101214.59;5034290;28;20049;-70
2021/01/28 01:15:20;;;;;;;25.98;15.52;;;;;;;2.78;59.54;101221.53;5034239;28;20053;-70
2021/01/28 01:17:47;;;;;;;30.23;15.27;;;;;;;2.77;59.72;101232.78;5033153;28;20069;-71
2021/01/28 01:20:16;;;;;;;28.85;16.25;;;;;;;2.75;59.69;101233.69;5034048;28;20057;-71
2021/01/28 01:22:42;;;;;;;28.00;16.40;;;;;;;2.75;59.80;101226.75;5033898;28;20071;-70
2021/01/28 01:25:11;;;;;;;38.72;16.58;;;;;;;2.74;59.63;101229.38;5033903;28;20506;-70
2021/01/28 01:27:37;;;;;;;26.45;16.30;;;;;;;2.73;59.78;101225.06;5033860;28;20052;-71
2021/01/28 01:30:05;;;;;;;28.27;15.73;;;;;;;2.72;59.81;101221.63;5033707;28;20441;-70
2021/01/28 01:32:32;;;;;;;32.15;17.38;;;;;;;2.71;59.73;101222.50;5033795;28;20041;-71
2021/01/28 01:34:58;;;;;;;29.42;16.23;;;;;;;2.71;59.74;101219.91;5033986;28;20053;-71
2021/01/28 01:37:24;;;;;;;29.23;17.90;;;;;;;2.70;59.82;101206.97;5033735;28;20057;-71
2021/01/28 01:39:50;;;;;;;33.05;16.58;;;;;;;2.69;59.83;101206.13;5032915;28;20041;-70
2021/01/28 01:42:16;;;;;;;26.77;16.27;;;;;;;2.69;59.85;101202.69;5033741;28;20053;-71
2021/01/28 01:44:42;;;;;;;32.42;18.83;;;;;;;2.68;59.94;101193.19;5033490;28;20057;-71
2021/01/28 01:47:44;;;;;;;31.33;17.63;;;;;;;2.64;60.00;101187.22;5033835;28;20128;-71
2021/01/28 01:50:42;;;;;;;28.05;17.02;;;;;;;2.64;59.97;101196.72;5033433;28;20050;-71
2021/01/28 01:53:15;;;;;;;29.40;18.30;;;;;;;2.62;60.12;101191.56;5033711;28;20056;-68
2021/01/28 01:55:47;;;;;;;31.17;18.42;;;;;;;2.61;59.97;101195.88;5033313;28;20107;-71
2021/01/28 01:58:25;;;;;;;29.00;18.00;;;;;;;2.62;60.00;101209.69;5033394;28;20069;-71
2021/01/28 02:00:51;;;;;;;33.47;18.65;;;;;;;2.61;59.98;101216.59;5033398;28;20053;-71
2021/01/28 02:03:18;;;;;;;33.97;18.05;;;;;;;2.60;60.00;101214.03;5033481;28;20080;-71
2021/01/28 02:05:52;;;;;;;29.50;17.50;;;;;;;2.60;60.13;101214.03;5033339;28;20045;-71
2021/01/28 02:08:19;;;;;;;33.30;17.52;;;;;;;2.58;59.98;101200.28;5033212;28;20046;-71
2021/01/28 02:10:45;;;;;;;28.58;17.80;;;;;;;2.54;60.10;101194.28;5033191;28;20053;-71
2021/01/28 02:13:11;;;;;;;28.58;17.92;;;;;;;2.51;59.89;101207.25;5033078;28;20046;-71
2021/01/28 02:15:37;;;;;;;26.83;16.92;;;;;;;2.49;59.85;101203.88;5032901;28;20053;-71
2021/01/28 02:18:04;;;;;;;27.35;17.20;;;;;;;2.47;59.71;101202.19;5032852;28;20164;-71
2021/01/28 02:20:40;;;;;;;30.65;19.25;;;;;;;2.47;60.00;101217.72;5032852;28;20076;-71
2021/01/28 02:23:15;;;;;;;29.50;18.03;;;;;;;2.45;60.04;101215.13;5033059;28;20046;-71
2021/01/28 02:25:43;;;;;;;38.92;19.92;;;;;;;2.44;60.00;101216.88;5032888;28;20437;-72
2021/01/28 02:28:13;;;;;;;31.98;21.60;;;;;;;2.44;60.00;101213.44;5032909;28;20148;-71
2021/01/28 02:30:41;;;;;;;39.05;22.98;;;;;;;2.45;60.33;101215.13;5032758;28;20057;-71
2021/01/28 02:33:11;;;;;;;40.40;23.27;;;;;;;2.45;60.45;101212.53;5032770;28;20057;-71
2021/01/28 02:35:38;;;;;;;35.15;22.38;;;;;;;2.44;60.41;101196.16;5032837;28;20057;-71
2021/01/28 02:38:09;;;;;;;37.30;22.40;;;;;;;2.43;60.50;101197.03;5032709;28;20045;-71
2021/01/28 02:40:37;;;;;;;39.80;22.15;;;;;;;2.43;60.54;101194.44;5032619;28;20049;-71
2021/01/28 02:43:04;;;;;;;36.67;22.25;;;;;;;2.43;60.57;101196.19;5032712;28;20072;-71
2021/01/28 02:45:33;;;;;;;35.85;19.27;;;;;;;2.42;60.61;101205.66;5032642;28;20124;-71
2021/01/28 02:48:04;;;;;;;50.00;21.13;;;;;;;2.40;60.60;101215.22;5032935;28;20060;-71
2021/01/28 02:50:30;;;;;;;38.22;22.30;;;;;;;2.39;60.61;101225.59;5032656;28;20045;-71
2021/01/28 02:53:00;;;;;;;34.55;19.77;;;;;;;2.36;60.41;101212.69;5032508;28;20498;-71
2021/01/28 02:55:29;;;;;;;30.65;19.50;;;;;;;2.34;60.42;101212.72;5032395;28;20473;-70
2021/01/28 02:57:56;;;;;;;29.15;19.73;;;;;;;2.32;60.50;101201.50;5032507;28;20502;-71
2021/01/28 03:00:34;;;;;;;28.95;19.48;;;;;;;2.31;60.29;101201.53;5032370;28;20056;-71
2021/01/28 03:03:08;;;;;;;31.52;19.48;;;;;;;2.27;60.21;101186.06;5032442;28;20049;-71
2021/01/28 03:05:36;;;;;;;38.00;20.25;;;;;;;2.25;60.02;101176.59;5032541;28;20064;-71
2021/01/28 03:08:03;;;;;;;34.67;19.73;;;;;;;2.25;60.03;101174.03;5032298;28;20057;-71
2021/01/28 03:10:30;;;;;;;31.50;19.23;;;;;;;2.24;60.19;101172.31;5032245;28;20519;-71
2021/01/28 03:12:56;;;;;;;34.28;20.13;;;;;;;2.23;60.05;101186.97;5032353;28;20056;-71
2021/01/28 03:15:23;;;;;;;40.38;21.63;;;;;;;2.24;60.26;101187.84;5031988;28;20049;-71
2021/01/28 03:17:51;;;;;;;38.63;21.55;;;;;;;2.25;60.21;101189.56;5032058;28;20506;-71
2021/01/28 03:20:20;;;;;;;37.65;21.70;;;;;;;2.25;60.35;101197.31;5032325;28;20050;-71
2021/01/28 03:22:47;;;;;;;37.58;21.92;;;;;;;2.26;60.54;101191.25;5031129;28;20087;-71
2021/01/28 03:25:16;;;;;;;32.92;20.45;;;;;;;2.25;60.55;101194.72;5032264;28;20540;-71
2021/01/28 03:27:42;;;;;;;34.38;17.75;;;;;;;2.26;60.46;101188.66;5032083;28;20052;-71
2021/01/28 03:30:19;;;;;;;31.27;19.10;;;;;;;2.26;60.25;101194.69;5032090;28;20057;-71
2021/01/28 03:32:45;;;;;;;29.17;16.17;;;;;;;2.26;60.26;101193.81;5032152;28;20050;-71
2021/01/28 03:35:12;;;;;;;27.00;15.27;;;;;;;2.25;60.02;101190.41;5032128;28;20045;-71
2021/01/28 03:37:38;;;;;;;29.05;16.10;;;;;;;2.23;60.01;101192.16;5031997;28;20052;-72
2021/01/28 03:40:05;;;;;;;24.90;15.07;;;;;;;2.22;60.10;101189.59;5032024;28;20433;-71
2021/01/28 03:42:31;;;;;;;26.83;14.60;;;;;;;2.20;59.71;101184.44;5032023;28;20049;-72
2021/01/28 03:44:57;;;;;;;26.08;13.18;;;;;;;2.20;59.85;101183.59;5032231;28;20064;-69
2021/01/28 03:47:24;;;;;;;22.38;12.30;;;;;;;2.19;59.67;101198.25;5032234;28;20045;-71
2021/01/28 03:49:50;;;;;;;25.08;14.95;;;;;;;2.16;59.53;101195.72;5031864;28;20054;-71
2021/01/28 03:52:17;;;;;;;25.83;14.02;;;;;;;2.15;59.50;101193.16;5031956;28;20164;-71
2021/01/28 03:54:43;;;;;;;26.13;14.50;;;;;;;2.15;59.50;101195.75;5031915;28;20057;-71
2021/01/28 03:57:09;;;;;;;29.10;15.13;;;;;;;2.11;59.31;101190.59;5031999;28;20060;-70
2021/01/28 03:59:36;;;;;;;24.77;14.82;;;;;;;2.09;59.26;101181.97;5031908;28;20053;-71
2021/01/28 04:02:03;;;;;;;29.17;15.45;;;;;;;2.09;59.35;101184.56;5030462;28;20132;-68
2021/01/28 04:04:29;;;;;;;31.90;15.02;;;;;;;2.08;59.23;101185.47;5030546;28;20068;-71
2021/01/28 04:06:55;;;;;;;41.67;15.82;;;;;;;2.07;58.91;101188.06;5032060;28;20054;-68
2021/01/28 04:09:21;;;;;;;35.97;15.25;;;;;;;2.04;58.82;101175.19;5032387;28;20494;-71
2021/01/28 04:11:47;;;;;;;24.58;14.00;;;;;;;2.02;58.81;101167.44;5032027;28;20100;-71
2021/01/28 04:14:14;;;;;;;32.78;14.13;;;;;;;2.02;59.01;101175.22;5031781;28;20072;-72
2021/01/28 04:16:40;;;;;;;27.90;14.00;;;;;;;2.01;58.78;101172.66;5031771;28;20502;-69
2021/01/28 04:19:06;;;;;;;26.42;14.65;;;;;;;2.00;58.82;101161.41;5031983;28;20092;-70
2021/01/28 04:21:34;;;;;;;25.00;14.55;;;;;;;2.00;58.68;101155.41;5031885;28;20069;-69
2021/01/28 04:24:02;;;;;;;23.83;13.25;;;;;;;1.99;58.69;101158.84;5031990;28;20041;-70
2021/01/28 04:26:28;;;;;;;28.33;14.85;;;;;;;1.97;58.52;101166.66;5031949;28;20489;-71
2021/01/28 04:28:55;;;;;;;28.95;13.57;;;;;;;1.94;58.47;101167.56;5031908;28;20064;-71
2021/01/28 04:31:21;;;;;;;24.73;14.00;;;;;;;1.92;58.47;101174.47;5031657;28;20045;-71
2021/01/28 04:33:48;;;;;;;28.27;14.52;;;;;;;1.90;58.36;101178.81;5031565;28;20057;-71
2021/01/28 04:36:14;;;;;;;28.80;14.77;;;;;;;1.89;58.26;101182.28;5031608;28;20041;-72
2021/01/28 04:38:41;;;;;;;34.03;14.80;;;;;;;1.88;58.27;101169.34;5031819;28;20046;-68
2021/01/28 04:41:25;;;;;;;33.78;16.67;;;;;;;1.87;58.17;101170.25;5031531;28;20046;-69
2021/01/28 04:43:54;;;;;;;27.25;14.27;;;;;;;1.85;58.19;101162.47;5031198;28;20064;-71
2021/01/28 04:46:25;;;;;;;31.83;15.30;;;;;;;1.84;58.28;101147.84;5031383;28;20049;-68
2021/01/28 04:48:54;;;;;;;27.15;14.05;;;;;;;1.83;58.31;101146.13;5031550;28;20041;-68
2021/01/28 04:51:20;;;;;;;23.20;15.07;;;;;;;1.79;58.21;101142.72;5031397;28;20655;-69
2021/01/28 04:53:58;;;;;;;22.83;14.63;;;;;;;1.78;58.15;101142.75;5031147;28;20049;-68
2021/01/28 04:56:26;;;;;;;23.27;13.93;;;;;;;1.76;58.36;101154.84;5031307;28;20058;-68
2021/01/28 04:59:05;;;;;;;21.30;14.13;;;;;;;1.76;58.16;101158.28;5031366;28;20053;-71
2021/01/28 05:01:32;;;;;;;20.90;14.60;;;;;;;1.75;58.08;101151.41;5031082;28;20512;-71
2021/01/28 05:04:02;;;;;;;27.02;14.63;;;;;;;1.74;57.67;101154.88;5030998;28;20041;-71
2021/01/28 05:06:29;;;;;;;26.90;15.45;;;;;;;1.74;58.16;101156.59;5031038;28;20042;-70
2021/01/28 05:08:55;;;;;;;30.65;14.65;;;;;;;1.72;57.96;101159.22;5031244;28;20046;-68
2021/01/28 05:11:27;;;;;;;31.42;14.50;;;;;;;1.70;57.96;101158.38;5030912;28;20571;-71
2021/01/28 05:13:54;;;;;;;25.65;13.90;;;;;;;1.69;58.16;101159.25;5030399;28;20045;-71
2021/01/28 05:16:38;;;;;;;24.73;13.65;;;;;;;1.69;58.20;101161.84;5029926;28;20061;-69
2021/01/28 05:19:11;;;;;;;23.58;11.90;;;;;;;1.69;58.14;101168.72;5030861;28;20049;-71
2021/01/28 05:21:40;;;;;;;28.08;12.70;;;;;;;1.70;58.26;101173.03;5030650;28;20046;-68
2021/01/28 05:24:27;;;;;;;26.85;13.05;;;;;;;1.69;58.25;101176.50;5030622;28;20461;-68
2021/01/28 05:26:53;;;;;;;23.58;12.95;;;;;;;1.66;58.24;101176.56;5030806;28;20053;-71
2021/01/28 05:29:19;;;;;;;23.05;13.00;;;;;;;1.65;58.14;101172.25;5030780;28;20053;-70
2021/01/28 05:31:46;;;;;;;20.42;11.43;;;;;;;1.62;58.19;101176.56;5030423;28;20049;-69
2021/01/28 05:34:19;;;;;;;22.58;11.18;;;;;;;1.59;58.15;101174.03;5030739;28;20056;-71
2021/01/28 05:37:01;;;;;;;23.60;11.10;;;;;;;1.60;58.13;101182.63;5030366;28;20049;-68
2021/01/28 05:39:33;;;;;;;22.33;12.48;;;;;;;1.58;58.13;101194.75;5030332;28;20111;-69
2021/01/28 05:42:26;;;;;;;23.92;10.82;;;;;;;1.60;58.17;101205.91;5030729;28;20482;-71
2021/01/28 05:44:55;;;;;;;20.30;10.98;;;;;;;1.58;58.18;101200.78;5030585;28;20057;-71
2021/01/28 05:47:25;;;;;;;20.08;11.38;;;;;;;1.58;58.24;101200.78;5030308;28;20049;-71
2021/01/28 05:49:51;;;;;;;20.92;11.63;;;;;;;1.58;58.45;101187.84;5030281;28;20049;-68
2021/01/28 05:52:27;;;;;;;21.40;10.55;;;;;;;1.57;58.34;101188.72;5029796;28;20064;-68
2021/01/28 05:55:12;;;;;;;19.67;11.43;;;;;;;1.55;58.32;101195.66;5029895;28;20490;-70
2021/01/28 05:57:44;;;;;;;19.20;11.45;;;;;;;1.56;58.25;101181.84;5029632;28;20053;-71
2021/01/28 06:00:24;;;;;;;22.30;11.30;;;;;;;1.57;58.22;101187.88;5029423;28;20069;-70
2021/01/28 06:03:26;;;;;;;21.38;12.48;;;;;;;1.58;58.36;101190.41;5029546;28;20045;-69
2021/01/28 06:06:29;;;;;;;19.95;11.15;;;;;;;1.59;58.35;101197.31;5029870;28;20387;-74
2021/01/28 06:09:04;;;;;;;20.35;11.00;;;;;;;1.58;58.05;101194.75;5030075;28;20405;-69
2021/01/28 06:11:31;;;;;;;;;;;;;;;1.55;58.03;101184.44;5030256;28;20049;-73
2021/01/28 06:14:25;;;;;;;19.70;11.82;;;;;;;1.54;57.67;101168.06;5029217;28;20012;-73
2021/01/28 06:17:04;;;;;;;19.50;11.23;;;;;;;1.53;57.83;101184.44;5028856;28;20064;-71
2021/01/28 06:19:54;;;;;;;20.23;10.40;;;;;;;1.50;57.70;101183.63;5029622;28;20520;-66
2021/01/28 06:22:42;;;;;;;22.98;11.45;;;;;;;1.48;57.69;101180.22;5029683;28;20045;-66
2021/01/28 06:25:33;;;;;;;19.98;11.32;;;;;;;1.47;57.78;101179.34;5029638;28;20486;-71
2021/01/28 06:28:18;;;;;;;17.42;11.20;;;;;;;1.47;57.88;101179.34;5029468;28;20045;-72
2021/01/28 06:30:47;;;;;;;21.58;11.63;;;;;;;1.48;57.79;101167.28;5028146;28;20053;-68
2021/01/28 06:33:37;;;;;;;27.45;14.10;;;;;;;1.45;57.96;101173.34;5029472;28;20041;-65
2021/01/28 06:36:06;;;;;;;23.65;12.95;;;;;;;1.43;57.84;101181.09;5028991;28;20513;-68
2021/01/28 06:38:58;;;;;;;26.27;13.57;;;;;;;1.45;58.00;101170.78;5029078;28;20045;-69
2021/01/28 06:41:29;;;;;;;21.48;10.77;;;;;;;1.45;58.22;101176.78;5029138;28;20156;-74
2021/01/28 06:44:05;;;;;;;24.13;11.52;;;;;;;1.46;58.35;101191.44;5029678;28;20050;-73
2021/01/28 06:46:43;;;;;;;18.80;10.30;;;;;;;1.49;58.33;101200.03;5029012;28;20045;-69
2021/01/28 06:49:40;;;;;;;21.60;10.65;;;;;;;1.50;58.42;101205.19;5029139;28;20143;-66
2021/01/28 06:52:14;;;;;;;21.33;10.77;;;;;;;1.65;61.31;101218.81;5029266;28;20056;-67
2021/01/28 06:54:40;;;;;;;19.83;10.45;;;;;;;1.68;60.89;101226.56;5028801;28;20053;-66
2021/01/28 06:57:12;;;;;;;19.75;10.25;;;;;;;1.64;60.49;101225.72;5029093;28;20576;-66
2021/01/28 06:59:49;;;;;;;23.98;10.98;;;;;;;1.60;60.03;101230.06;5025431;28;20045;-67
2021/01/28 07:02:40;;;;;;;20.92;10.48;;;;;;;1.56;59.66;101231.00;5021055;28;20057;-66
2021/01/28 07:05:15;;;;;;;23.08;11.40;;;;;;;1.55;59.63;101225.81;5028535;28;20449;-67
2021/01/28 07:08:00;;;;;;;22.17;11.27;;;;;;;1.55;59.39;101225.81;5028264;28;20387;-67
2021/01/28 07:10:42;;;;;;;22.52;10.60;;;;;;;1.58;59.47;101221.47;5027192;28;20050;-66
2021/01/28 07:13:18;;;;;;;26.25;12.10;;;;;;;1.65;59.45;101218.81;5028132;28;20053;-66
2021/01/28 07:15:50;;;;;;;29.85;14.23;;;;;;;1.69;59.30;101211.00;5026891;28;20057;-66
2021/01/28 07:18:34;;;;;;;22.70;13.40;;;;;;;1.72;59.29;101210.09;5027807;28;20048;-67
2021/01/28 07:21:07;;;;;;;24.42;12.95;;;;;;;1.74;59.11;101204.03;5027055;28;20621;-68
2021/01/28 07:23:41;;;;;;;25.17;12.35;;;;;;;1.76;59.04;101207.44;5024376;28;20490;-67
2021/01/28 07:26:14;;;;;;;27.05;13.98;;;;;;;1.76;58.92;101198.84;5027234;28;20052;-68
2021/01/28 07:28:46;;;;;;;21.55;11.90;;;;;;;1.79;58.84;101191.03;5027747;28;20080;-68
2021/01/28 07:31:23;;;;;;;24.98;13.70;;;;;;;1.86;58.96;101186.66;5024651;28;20045;-66
2021/01/28 07:33:58;;;;;;;25.00;14.35;;;;;;;1.92;58.83;101174.47;5013316;28;20045;-67
2021/01/28 07:36:25;;;;;;;28.65;14.55;;;;;;;2.01;58.95;101157.97;5028004;28;20053;-67
2021/01/28 07:38:58;;;;;;;25.98;13.80;;;;;;;2.15;58.67;101168.13;5030483;28;20042;-67
2021/01/28 07:41:26;;;;;;;22.00;13.15;;;;;;;2.29;58.54;101178.25;5031191;28;20045;-66
2021/01/28 07:44:14;;;;;;;19.83;12.35;;;;;;;2.46;58.19;101185.75;5032367;28;20494;-66
2021/01/28 07:46:41;;;;;;;26.38;13.57;;;;;;;2.63;57.85;101177.72;5031668;28;20502;-66
2021/01/28 07:49:20;;;;;;;22.15;12.80;;;;;;;2.78;57.42;101177.47;5031992;28;20136;-67
2021/01/28 07:51:49;;;;;;;24.88;12.75;;;;;;;2.88;57.37;101183.34;5031539;28;20437;-65
2021/01/28 07:54:23;;;;;;;20.17;12.98;;;;;;;2.97;57.26;101191.84;5031827;28;20053;-65
2021/01/28 07:57:12;;;;;;;22.08;12.70;;;;;;;3.03;57.33;101218.50;5031624;28;20073;-66
2021/01/28 07:59:56;;;;;;;22.17;12.95;;;;;;;3.07;57.21;101221.91;5031636;28;20053;-66
2021/01/28 08:02:30;;;;;;;;;;;;;;;3.12;57.10;101224.41;5032136;28;20073;-66
2021/01/28 08:05:09;;;;;;;21.85;13.57;;;;;;;3.15;57.36;101237.31;5031621;28;20707;-66
2021/01/28 08:07:43;;;;;;;24.92;14.93;;;;;;;3.18;57.26;101237.28;5031532;28;20072;-66
2021/01/28 08:10:26;;;;;;;26.25;15.85;;;;;;;3.26;57.31;101241.44;5031634;28;20077;-66
2021/01/28 08:12:59;;;;;;;24.58;14.73;;;;;;;3.36;57.33;101236.09;5031785;28;20049;-66
2021/01/28 08:15:32;;;;;;;25.90;14.55;;;;;;;3.46;57.09;101240.22;5030950;28;20505;-66
2021/01/28 08:18:02;;;;;;;26.17;14.75;;;;;;;3.62;57.01;101227.81;5031251;28;20053;-66
2021/01/28 08:20:31;;;;;;;23.10;13.77;;;;;;;3.80;56.56;101210.16;5031101;28;20045;-67
2021/01/28 08:23:13;;;;;;;20.55;14.20;;;;;;;3.89;56.86;101205.59;5030995;28;20044;-67
2021/01/28 08:25:52;;;;;;;21.13;13.43;;;;;;;3.93;56.84;101202.03;5029148;28;20052;-67
2021/01/28 08:28:18;;;;;;;23.08;13.15;;;;;;;3.92;56.81;101187.38;5029278;28;20045;-67
2021/01/28 08:30:45;;;;;;;25.80;13.93;;;;;;;3.95;56.63;101207.22;5030415;28;20037;-67
2021/01/28 08:33:21;;;;;;;21.45;13.65;;;;;;;3.93;56.81;101212.44;5027894;28;20045;-67
2021/01/28 08:35:54;;;;;;;20.08;12.18;;;;;;;3.88;56.42;101218.63;5030200;28;20049;-66
2021/01/28 08:38:32;;;;;;;22.00;13.18;;;;;;;3.96;56.35;101224.53;5030853;28;20502;-66
2021/01/28 08:41:06;;;;;;;22.33;13.00;;;;;;;4.09;56.21;101222.50;5029175;28;20406;-65
2021/01/28 08:43:32;;;;;;;18.42;12.70;;;;;;;4.27;55.75;101217.78;5031139;28;20049;-66
2021/01/28 08:46:05;;;;;;;23.88;14.43;;;;;;;4.49;55.16;101224.19;5030942;28;20053;-65
2021/01/28 08:48:32;;;;;;;18.98;13.05;;;;;;;4.70;54.62;101228.03;5030680;28;20500;-67
2021/01/28 08:51:23;;;;;;;20.05;12.57;;;;;;;4.90;54.18;101229.25;5031091;28;20056;-66
2021/01/28 08:54:02;;;;;;;21.00;13.13;;;;;;;5.08;53.73;101222.75;5030682;28;20062;-66
2021/01/28 08:56:39;;;;;;;19.15;11.80;;;;;;;5.28;53.34;101224.84;5030284;28;20057;-66
2021/01/28 08:59:12;;;;;;;18.48;12.18;;;;;;;5.46;52.91;101217.41;5029440;28;20058;-68
2021/01/28 09:01:43;;;;;;;19.33;12.35;;;;;;;5.54;52.49;101211.09;5026627;28;20437;-69
2021/01/28 09:04:25;;;;;;;19.17;12.45;;;;;;;5.70;51.94;101206.31;5027655;28;20038;-68
2021/01/28 09:06:52;;;;;;;21.58;13.60;;;;;;;5.81;51.63;101192.97;5030687;28;20414;-68
2021/01/28 09:09:28;;;;;;;20.13;12.13;;;;;;;5.97;51.30;101176.91;5030451;28;20415;-67
2021/01/28 09:12:13;;;;;;;;;;;;;;;6.12;50.98;101186.00;5031135;28;20049;-67
2021/01/28 09:14:40;;;;;;;26.25;13.73;;;;;;;6.29;50.73;101188.94;5030010;28;19921;-67
2021/01/28 09:17:17;;;;;;;22.00;12.98;;;;;;;6.44;50.48;101192.00;5029787;28;20057;-67
2021/01/28 09:19:57;;;;;;;27.40;14.60;;;;;;;6.55;49.84;101184.63;5030104;28;20046;-65
2021/01/28 09:22:43;;;;;;;22.58;12.30;;;;;;;6.62;49.70;101200.97;5027547;28;20041;-67
2021/01/28 09:25:21;;;;;;;24.15;12.77;;;;;;;6.72;49.25;101215.41;5027804;28;20505;-66
2021/01/28 09:28:12;;;;;;;20.08;11.68;;;;;;;6.84;49.04;101225.44;5030101;28;20056;-66
2021/01/28 09:30:44;;;;;;;21.20;12.35;;;;;;;6.94;48.86;101218.13;5026830;28;20128;-66
2021/01/28 09:33:36;;;;;;;20.10;12.25;;;;;;;7.01;48.58;101226.63;5030118;28;20509;-66
2021/01/28 09:36:13;;;;;;;37.28;22.02;;;;;;;7.09;48.10;101219.38;5029655;28;20053;-69
2021/01/28 09:38:40;;;;;;;32.05;19.13;;;;;;;7.21;47.77;101214.63;5029832;28;20042;-66
2021/01/28 09:41:18;;;;;;;22.05;15.05;;;;;;;7.39;47.38;101234.88;5029593;28;20061;-67
2021/01/28 09:43:46;;;;;;;21.58;12.85;;;;;;;7.59;46.91;101231.56;5016766;28;20053;-66
2021/01/28 09:46:18;;;;;;;21.70;13.23;;;;;;;7.81;46.71;101225.56;5016174;28;20409;-66
2021/01/28 09:48:51;;;;;;;20.95;13.00;;;;;;;7.72;46.92;101221.50;5022493;28;20566;-67
2021/01/28 09:51:25;;;;;;;22.35;13.00;;;;;;;7.56;47.22;101210.75;5043172;28;20406;-66
2021/01/28 09:54:23;;;;;;;20.40;14.00;;;;;;;7.60;47.32;101211.50;5042672;28;20049;-66
2021/01/28 09:56:50;;;;;;;22.55;14.60;;;;;;;7.60;47.34;101204.50;5019472;28;20048;-67
2021/01/28 09:59:17;;;;;;;23.60;14.60;;;;;;;7.40;47.44;101202.63;5029298;28;20395;-67
2021/01/28 10:01:45;;;;;;;25.23;14.40;;;;;;;7.18;47.91;101203.38;5028862;28;20049;-66
2021/01/28 10:04:12;;;;;;;27.50;17.13;;;;;;;7.01;48.07;101190.94;5029286;28;20046;-66
2021/01/28 10:06:39;;;;;;;29.85;18.85;;;;;;;6.87;48.44;101180.13;5028210;28;20449;-66
2021/01/28 10:09:07;;;;;;;23.65;14.68;;;;;;;6.72;48.58;101178.03;5029352;28;20046;-66
2021/01/28 10:11:34;;;;;;;28.10;15.90;;;;;;;6.61;48.71;101191.44;5029288;28;20049;-67
2021/01/28 10:14:01;;;;;;;19.17;13.20;;;;;;;6.47;48.71;101184.91;5029028;28;20061;-66
2021/01/28 10:16:28;;;;;;;22.52;13.95;;;;;;;6.34;48.42;101181.84;5028579;28;20411;-66
2021/01/28 10:18:54;;;;;;;21.45;13.48;;;;;;;6.20;48.67;101174.44;5029198;28;20046;-66
2021/01/28 10:21:21;;;;;;;22.42;13.75;;;;;;;6.10;48.76;101165.22;5029370;28;20056;-67
2021/01/28 10:23:47;;;;;;;21.90;14.10;;;;;;;6.02;48.73;101167.22;5028801;28;20045;-66
2021/01/28 10:26:13;;;;;;;21.33;14.25;;;;;;;5.94;48.78;101171.78;5028830;28;20049;-67
2021/01/28 10:28:39;;;;;;;20.38;14.07;;;;;;;5.89;48.95;101174.50;5028917;28;20493;-67
2021/01/28 10:31:08;;;;;;;24.73;16.73;;;;;;;5.89;49.14;101166.69;5028820;28;20041;-67
2021/01/28 10:33:36;;;;;;;24.98;17.15;;;;;;;5.86;49.12;101156.38;5028592;28;20057;-67
2021/01/28 10:36:04;;;;;;;29.27;17.95;;;;;;;5.87;49.19;101147.66;5028768;28;20057;-67
2021/01/28 10:38:30;;;;;;;27.65;17.08;;;;;;;5.88;49.07;101136.34;5028847;28;20057;-67
2021/01/28 10:40:57;;;;;;;25.25;16.30;;;;;;;5.91;49.40;101138.00;5029217;28;20045;-67
2021/01/28 10:43:23;;;;;;;27.50;16.85;;;;;;;5.91;49.82;101132.81;5028397;28;20049;-67
2021/01/28 10:45:49;;;;;;;28.98;18.83;;;;;;;5.89;49.93;101133.69;5027565;28;20054;-68
2021/01/28 10:48:17;;;;;;;27.85;17.27;;;;;;;5.90;49.95;101139.75;5026838;28;20052;-68
2021/01/28 10:50:44;;;;;;;32.38;19.00;;;;;;;5.91;50.10;101141.47;5027579;28;20112;-67
2021/01/28 10:53:10;;;;;;;26.58;17.65;;;;;;;5.92;50.27;101127.53;5028658;28;20105;-67
2021/01/28 10:55:36;;;;;;;25.17;16.63;;;;;;;5.91;50.26;101118.03;5028470;28;20410;-67
2021/01/28 10:58:03;;;;;;;27.33;16.20;;;;;;;5.91;50.10;101106.75;5028841;28;20046;-67
2021/01/28 11:00:30;;;;;;;24.45;15.98;;;;;;;5.90;49.68;101105.88;5028681;28;20418;-67
2021/01/28 11:02:57;;;;;;;30.63;16.63;;;;;;;5.89;49.51;101102.44;5028796;28;20049;-67
2021/01/28 11:05:27;;;;;;;29.27;18.75;;;;;;;5.86;49.52;101093.88;5028072;28;20064;-67
2021/01/28 11:07:54;;;;;;;33.13;20.00;;;;;;;5.83;49.57;101093.97;5028333;28;20041;-67
2021/01/28 11:10:23;;;;;;;30.48;17.83;;;;;;;5.83;49.66;101092.22;5028896;28;20053;-67
2021/01/28 11:12:51;;;;;;;28.98;17.05;;;;;;;5.84;49.72;101082.63;5029177;28;20362;-68
2021/01/28 11:15:18;;;;;;;30.02;16.85;;;;;;;5.84;49.79;101088.72;5032641;28;20452;-67
2021/01/28 11:17:45;;;;;;;23.60;15.20;;;;;;;5.81;49.75;101099.22;5030683;28;20510;-67
2021/01/28 11:20:13;;;;;;;25.35;15.85;;;;;;;5.80;49.46;101096.66;5032431;28;20045;-67
2021/01/28 11:22:40;;;;;;;26.52;16.73;;;;;;;5.81;49.43;101088.78;5032386;28;20507;-68
2021/01/28 11:25:11;;;;;;;28.52;16.67;;;;;;;5.85;49.41;101080.00;5032633;28;20049;-68
2021/01/28 11:27:38;;;;;;;25.75;16.27;;;;;;;5.95;49.32;101075.34;5031582;28;20422;-68
2021/01/28 11:30:06;;;;;;;27.45;17.15;;;;;;;6.07;49.14;101066.31;5031832;28;20049;-67
2021/01/28 11:32:32;;;;;;;30.67;18.35;;;;;;;6.28;49.01;101043.06;5030867;28;20052;-67
2021/01/28 11:34:58;;;;;;;32.17;18.75;;;;;;;6.45;48.95;101050.28;5031469;28;20056;-68
2021/01/28 11:37:25;;;;;;;27.75;17.33;;;;;;;6.46;48.82;101052.88;5032057;28;20049;-68